createdAt,value
2022-08-05T00:01:55.134Z,99.90
2022-08-05T00:04:36.065Z,99.90
2022-08-05T00:07:26.873Z,99.90
2022-08-05T00:09:53.370Z,99.90
2022-08-05T00:12:24.696Z,99.90
2022-08-05T00:14:53.235Z,99.90
2022-08-05T00:17:22.164Z,99.90
2022-08-05T00:20:02.391Z,99.90
2022-08-05T00:22:32.073Z,99.90
2022-08-05T00:25:00.648Z,99.90
2022-08-05T00:27:36.171Z,99.90
2022-08-05T00:30:11.509Z,99.90
2022-08-05T00:32:41.314Z,99.90
2022-08-05T00:35:10.539Z,99.90
2022-08-05T00:37:53.157Z,99.90
2022-08-05T00:40:27.329Z,99.90
2022-08-05T00:42:59.929Z,99.90
2022-08-05T00:45:43.186Z,99.90
2022-08-05T00:48:13.642Z,99.90
2022-08-05T00:50:44.373Z,99.90
2022-08-05T00:54:00.792Z,99.90
2022-08-05T00:56:05.626Z,99.90
2022-08-05T00:58:38.366Z,99.90
2022-08-05T01:01:09.118Z,99.90
2022-08-05T01:03:38.874Z,99.90
2022-08-05T01:06:14.264Z,99.90
2022-08-05T01:08:47.460Z,99.90
2022-08-05T01:11:21.865Z,99.90
2022-08-05T01:14:11.109Z,99.90
2022-08-05T01:16:50.616Z,99.90
2022-08-05T01:19:56.902Z,99.90
2022-08-05T01:22:41.939Z,99.90
2022-08-05T01:25:40.501Z,99.90
2022-08-05T01:28:33.133Z,99.90
2022-08-05T01:31:05.552Z,99.90
2022-08-05T01:33:43.090Z,99.90
2022-08-05T01:36:21.068Z,99.90
2022-08-05T01:39:00.892Z,99.90
2022-08-05T01:41:33.815Z,99.90
2022-08-05T01:44:10.011Z,99.90
2022-08-05T01:46:46.498Z,99.90
2022-08-05T01:49:22.841Z,99.90
2022-08-05T01:51:56.331Z,99.90
2022-08-05T01:54:33.309Z,99.90
2022-08-05T01:58:09.488Z,99.90
2022-08-05T01:59:57.246Z,99.90
2022-08-05T02:02:30.728Z,99.90
2022-08-05T02:05:04.939Z,99.90
2022-08-05T02:07:43.124Z,99.90
2022-08-05T02:10:28.830Z,99.90
2022-08-05T02:13:02.896Z,99.90
2022-08-05T02:15:38.085Z,99.90
2022-08-05T02:18:31.228Z,99.90
2022-08-05T02:21:14.946Z,99.90
2022-08-05T02:23:46.325Z,99.90
2022-08-05T02:26:19.259Z,99.90
2022-08-05T02:28:51.284Z,99.90
2022-08-05T02:31:28.479Z,99.90
2022-08-05T02:34:06.026Z,99.90
2022-08-05T02:36:40.822Z,99.90
2022-08-05T02:39:10.402Z,99.90
2022-08-05T02:41:57.583Z,99.90
2022-08-05T02:44:31.285Z,99.90
2022-08-05T02:47:01.908Z,99.90
2022-08-05T02:49:36.411Z,99.90
2022-08-05T02:52:11.598Z,99.90
2022-08-05T02:54:51.196Z,99.90
2022-08-05T02:58:11.378Z,99.90
2022-08-05T03:00:13.966Z,99.90
2022-08-05T03:02:46.338Z,99.90
2022-08-05T03:05:16.269Z,99.90
2022-08-05T03:08:06.749Z,99.90
2022-08-05T03:10:35.633Z,99.90
2022-08-05T03:13:12.219Z,99.90
2022-08-05T03:15:47.017Z,99.90
2022-08-05T03:18:17.332Z,99.90
2022-08-05T03:20:48.773Z,99.90
2022-08-05T03:23:17.903Z,99.90
2022-08-05T03:26:29.948Z,99.90
2022-08-05T03:28:39.566Z,99.90
2022-08-05T03:31:18.304Z,99.90
2022-08-05T03:34:02.906Z,99.90
2022-08-05T03:36:32.627Z,99.90
2022-08-05T03:39:19.959Z,99.90
2022-08-05T03:41:56.151Z,99.90
2022-08-05T03:44:25.492Z,99.90
2022-08-05T03:46:59.881Z,99.90
2022-08-05T03:49:30.870Z,99.90
2022-08-05T03:52:50.622Z,99.90
2022-08-05T03:55:06.979Z,99.90
2022-08-05T03:57:47.610Z,99.90
2022-08-05T04:00:17.673Z,99.90
2022-08-05T04:02:58.697Z,99.90
2022-08-05T04:05:35.110Z,99.90
2022-08-05T04:08:05.828Z,99.90
2022-08-05T04:10:45.119Z,99.90
2022-08-05T04:13:13.858Z,99.90
2022-08-05T04:15:52.721Z,99.90
2022-08-05T04:18:34.264Z,99.90
2022-08-05T04:21:05.308Z,99.90
2022-08-05T04:24:05.569Z,99.90
2022-08-05T04:26:24.819Z,99.90
2022-08-05T04:28:53.312Z,99.90
2022-08-05T04:31:22.353Z,99.90
2022-08-05T04:34:18.783Z,99.90
2022-08-05T04:36:50.039Z,99.90
2022-08-05T04:39:19.334Z,99.90
2022-08-05T04:41:51.176Z,99.90
2022-08-05T04:44:21.326Z,99.90
2022-08-05T04:46:58.629Z,99.90
2022-08-05T04:49:39.004Z,99.90
2022-08-05T04:52:18.719Z,99.90
2022-08-05T04:54:47.369Z,99.90
2022-08-05T04:57:18.063Z,99.90
2022-08-05T04:59:48.100Z,99.90
2022-08-05T05:02:36.261Z,99.90
2022-08-05T05:05:16.877Z,99.90
2022-08-05T05:08:01.460Z,99.90
2022-08-05T05:10:33.782Z,99.90
2022-08-05T05:13:04.237Z,99.90
2022-08-05T05:15:56.914Z,99.90
2022-08-05T05:18:33.453Z,99.90
2022-08-05T05:21:05.486Z,99.90
2022-08-05T05:24:02.111Z,99.90
2022-08-05T05:26:28.541Z,99.90
2022-08-05T05:29:02.647Z,99.90
2022-08-05T05:31:46.366Z,99.90
2022-08-05T05:34:15.391Z,99.90
2022-08-05T05:36:44.381Z,99.90
2022-08-05T05:39:19.023Z,99.90
2022-08-05T05:41:54.133Z,99.90
2022-08-05T05:44:36.709Z,99.90
2022-08-05T05:47:23.589Z,99.90
2022-08-05T05:50:04.118Z,99.90
2022-08-05T05:52:34.526Z,99.90
2022-08-05T05:55:13.718Z,99.90
2022-08-05T05:57:52.539Z,99.90
2022-08-05T06:00:27.808Z,99.90
2022-08-05T06:03:03.403Z,99.90
2022-08-05T06:05:54.089Z,99.90
2022-08-05T06:08:32.762Z,99.90
2022-08-05T06:11:04.028Z,99.90
2022-08-05T06:13:40.768Z,99.90
2022-08-05T06:16:28.839Z,99.90
2022-08-05T06:19:05.377Z,99.90
2022-08-05T06:21:37.442Z,99.90
2022-08-05T06:24:12.168Z,99.90
2022-08-05T06:26:52.048Z,99.90
2022-08-05T06:29:42.931Z,99.90
2022-08-05T06:32:24.822Z,99.90
2022-08-05T06:34:56.630Z,99.90
2022-08-05T06:37:56.182Z,98.60
2022-08-05T06:40:18.478Z,98.60
2022-08-05T06:42:52.634Z,97.80
2022-08-05T06:45:44.673Z,97.40
2022-08-05T06:48:46.989Z,97.20
2022-08-05T06:51:00.764Z,96.60
2022-08-05T06:53:29.790Z,95.90
2022-08-05T06:55:59.425Z,95.80
2022-08-05T06:58:36.183Z,94.80
2022-08-05T07:01:07.200Z,94.60
2022-08-05T07:03:36.388Z,94.00
2022-08-05T07:06:14.184Z,93.50
2022-08-05T07:08:47.617Z,93.50
2022-08-05T07:11:21.911Z,93.20
2022-08-05T07:14:15.562Z,92.60
2022-08-05T07:17:59.723Z,91.40
2022-08-05T07:20:30.978Z,91.60
2022-08-05T07:22:30.455Z,91.00
2022-08-05T07:25:21.759Z,90.70
2022-08-05T07:27:58.526Z,90.90
2022-08-05T07:30:34.524Z,89.20
2022-08-05T07:33:09.794Z,90.10
2022-08-05T07:36:05.299Z,90.10
2022-08-05T07:38:33.510Z,90.00
2022-08-05T07:42:07.128Z,90.00
2022-08-05T07:43:57.324Z,88.00
2022-08-05T07:46:29.465Z,88.60
2022-08-05T07:49:05.433Z,87.40
2022-08-05T07:51:48.921Z,86.20
2022-08-05T07:54:30.821Z,85.40
2022-08-05T07:57:17.982Z,84.80
2022-08-05T07:59:52.136Z,84.30
2022-08-05T08:02:30.861Z,83.90
2022-08-05T08:05:17.538Z,83.20
2022-08-05T08:08:00.215Z,82.50
2022-08-05T08:10:30.111Z,81.70
2022-08-05T08:12:59.183Z,81.00
2022-08-05T08:16:34.606Z,80.40
2022-08-05T08:18:20.961Z,81.00
2022-08-05T08:21:02.747Z,80.70
2022-08-05T08:24:01.969Z,79.80
2022-08-05T08:26:29.273Z,78.80
2022-08-05T08:29:21.586Z,77.10
2022-08-05T08:31:48.691Z,76.80
2022-08-05T08:34:18.982Z,77.90
2022-08-05T08:37:03.405Z,77.30
2022-08-05T08:39:37.549Z,75.60
2022-08-05T08:42:10.806Z,74.90
2022-08-05T08:45:25.207Z,74.60
2022-08-05T08:48:07.010Z,74.50
2022-08-05T08:51:03.815Z,73.70
2022-08-05T08:53:37.237Z,72.20
2022-08-05T08:56:06.713Z,71.40
2022-08-05T08:58:43.098Z,71.20
2022-08-05T09:01:16.455Z,72.30
2022-08-05T09:03:48.178Z,71.00
2022-08-05T09:06:24.200Z,72.20
2022-08-05T09:08:57.724Z,71.70
2022-08-05T09:11:51.637Z,71.00
2022-08-05T09:14:58.095Z,71.10
2022-08-05T09:17:40.289Z,70.90
2022-08-05T09:20:02.598Z,68.90
2022-08-05T09:23:07.693Z,68.80
2022-08-05T09:26:01.167Z,68.70
2022-08-05T09:28:32.524Z,68.40
2022-08-05T09:31:22.068Z,67.80
2022-08-05T09:33:56.166Z,67.10
2022-08-05T09:36:27.736Z,67.50
2022-08-05T09:39:16.501Z,66.50
2022-08-05T09:41:58.466Z,66.30
2022-08-05T09:44:41.965Z,65.00
2022-08-05T09:47:15.399Z,64.50
2022-08-05T09:50:01.681Z,65.60
2022-08-05T09:52:32.931Z,63.90
2022-08-05T09:55:55.378Z,63.10
2022-08-05T09:57:58.734Z,63.50
2022-08-05T10:00:30.479Z,62.60
2022-08-05T10:02:59.550Z,63.00
2022-08-05T10:05:32.881Z,63.10
2022-08-05T10:08:35.352Z,62.20
2022-08-05T10:10:59.551Z,62.90
2022-08-05T10:13:45.767Z,63.30
2022-08-05T10:16:37.915Z,61.80
2022-08-05T10:19:23.553Z,60.40
2022-08-05T10:22:00.368Z,60.80
2022-08-05T10:24:30.001Z,60.20
2022-08-05T10:27:02.853Z,60.30
2022-08-05T10:30:06.419Z,59.90
2022-08-05T10:32:52.206Z,59.70
2022-08-05T10:35:15.546Z,59.80
2022-08-05T10:37:45.376Z,58.80
2022-08-05T10:40:28.159Z,58.30
2022-08-05T10:43:05.961Z,58.10
2022-08-05T10:45:40.152Z,58.70
2022-08-05T10:48:39.538Z,59.80
2022-08-05T10:51:29.313Z,60.00
2022-08-05T10:54:17.062Z,59.30
2022-08-05T10:56:53.478Z,59.00
2022-08-05T11:00:04.122Z,59.20
2022-08-05T11:02:34.953Z,59.50
2022-08-05T11:05:10.215Z,59.70
2022-08-05T11:08:02.817Z,59.00
2022-08-05T11:10:34.925Z,59.10
2022-08-05T11:13:07.502Z,59.60
2022-08-05T11:16:01.332Z,59.10
2022-08-05T11:18:34.097Z,59.00
2022-08-05T11:21:25.976Z,58.90
2022-08-05T11:24:04.208Z,59.10
2022-08-05T11:26:43.374Z,59.30
2022-08-05T11:29:36.117Z,58.90
2022-08-05T11:32:29.083Z,58.90
2022-08-05T11:34:58.931Z,58.90
2022-08-05T11:38:36.488Z,59.70
2022-08-05T11:41:35.289Z,59.30
2022-08-05T11:44:05.994Z,58.90
2022-08-05T11:46:58.594Z,59.00
2022-08-05T11:49:29.404Z,59.40
2022-08-05T11:52:08.681Z,59.00
2022-08-05T11:54:41.693Z,59.80
2022-08-05T11:57:25.635Z,58.80
2022-08-05T11:59:55.030Z,59.20
2022-08-05T12:02:30.258Z,59.30
2022-08-05T12:05:07.439Z,59.40
2022-08-05T12:08:03.226Z,59.30
2022-08-05T12:10:45.836Z,59.10
2022-08-05T12:13:28.345Z,59.00
2022-08-05T12:16:14.590Z,59.10
2022-08-05T12:18:49.489Z,58.50
2022-08-05T12:21:26.907Z,57.90
2022-08-05T12:24:04.397Z,58.20
2022-08-05T12:26:35.523Z,58.40
2022-08-05T12:29:09.612Z,57.50
2022-08-05T12:31:49.931Z,57.80
2022-08-05T12:34:28.716Z,57.70
2022-08-05T12:37:03.555Z,57.30
2022-08-05T12:39:38.461Z,56.70
2022-08-05T12:42:14.289Z,56.60
2022-08-05T12:44:45.848Z,56.40
2022-08-05T12:47:30.399Z,55.80
2022-08-05T12:50:04.097Z,56.20
2022-08-05T12:52:42.175Z,56.10
2022-08-05T12:55:22.676Z,56.30
2022-08-05T12:58:38.380Z,56.50
2022-08-05T13:02:02.757Z,56.70
2022-08-05T13:03:41.447Z,56.50
2022-08-05T13:06:15.860Z,56.50
2022-08-05T13:08:51.687Z,57.20
2022-08-05T13:12:01.611Z,56.30
2022-08-05T13:14:19.522Z,56.60
2022-08-05T13:16:50.139Z,56.70
2022-08-05T13:19:22.288Z,56.90
2022-08-05T13:21:56.748Z,57.00
2022-08-05T13:24:36.363Z,56.70
2022-08-05T13:27:38.391Z,56.80
2022-08-05T13:30:34.571Z,57.00
2022-08-05T13:33:01.409Z,56.50
2022-08-05T13:35:43.130Z,56.20
2022-08-05T13:38:20.395Z,56.00
2022-08-05T13:41:01.554Z,56.90
2022-08-05T13:43:45.098Z,56.50
2022-08-05T13:46:35.709Z,56.60
2022-08-05T13:49:10.190Z,56.80
2022-08-05T13:51:46.067Z,56.70
2022-08-05T13:54:20.822Z,56.40
2022-08-05T13:56:54.764Z,56.30
2022-08-05T13:59:26.960Z,56.40
2022-08-05T14:01:58.948Z,56.90
2022-08-05T14:04:51.489Z,56.80
2022-08-05T14:07:26.398Z,56.50
2022-08-05T14:10:13.451Z,56.30
2022-08-05T14:12:48.930Z,56.40
2022-08-05T14:16:09.087Z,56.30
2022-08-05T14:18:14.821Z,56.40
2022-08-05T14:20:47.219Z,56.30
2022-08-05T14:23:24.870Z,55.80
2022-08-05T14:25:59.101Z,55.60
2022-08-05T14:28:30.666Z,55.90
2022-08-05T14:31:01.032Z,55.80
2022-08-05T14:33:56.301Z,55.40
2022-08-05T14:36:20.662Z,55.80
2022-08-05T14:38:51.096Z,56.20
2022-08-05T14:41:21.167Z,56.20
2022-08-05T14:44:02.597Z,56.20
2022-08-05T14:46:38.026Z,55.80
2022-08-05T14:49:08.429Z,55.70
2022-08-05T14:51:38.140Z,55.80
2022-08-05T14:54:28.527Z,55.80
2022-08-05T14:56:56.320Z,55.10
2022-08-05T14:59:29.578Z,55.00
2022-08-05T15:02:16.124Z,55.10
2022-08-05T15:04:47.803Z,55.60
2022-08-05T15:08:06.489Z,55.50
2022-08-05T15:10:09.508Z,55.70
2022-08-05T15:13:00.400Z,55.30
2022-08-05T15:15:55.454Z,55.20
2022-08-05T15:18:19.725Z,55.50
2022-08-05T15:20:48.415Z,55.20
2022-08-05T15:23:19.442Z,54.50
2022-08-05T15:25:52.362Z,55.60
2022-08-05T15:28:27.703Z,55.30
2022-08-05T15:30:58.444Z,55.30
2022-08-05T15:34:05.686Z,54.80
2022-08-05T15:36:17.378Z,54.90
2022-08-05T15:40:41.752Z,55.20
2022-08-05T15:41:56.054Z,55.40
2022-08-05T15:44:27.950Z,54.70
2022-08-05T15:47:04.335Z,55.00
2022-08-05T15:49:48.126Z,55.20
2022-08-05T15:52:51.906Z,54.30
2022-08-05T15:55:16.558Z,54.10
2022-08-05T15:57:46.008Z,54.10
2022-08-05T16:00:26.244Z,53.80
2022-08-05T16:03:10.010Z,54.10
2022-08-05T16:05:39.241Z,54.40
2022-08-05T16:08:10.895Z,54.40
2022-08-05T16:10:44.861Z,54.80
2022-08-05T16:13:23.502Z,54.90
2022-08-05T16:15:53.029Z,55.20
2022-08-05T16:18:22.934Z,55.20
2022-08-05T16:20:57.570Z,55.20
2022-08-05T16:23:27.465Z,54.80
2022-08-05T16:26:12.209Z,55.10
2022-08-05T16:28:42.305Z,55.00
2022-08-05T16:31:11.569Z,55.30
2022-08-05T16:33:42.084Z,55.50
2022-08-05T16:36:11.480Z,55.70
2022-08-05T16:38:40.105Z,55.40
2022-08-05T16:42:11.940Z,55.30
2022-08-05T16:43:58.022Z,55.30
2022-08-05T16:46:26.872Z,55.60
2022-08-05T16:48:56.854Z,55.80
2022-08-05T16:51:31.034Z,55.90
2022-08-05T16:54:18.630Z,55.90
2022-08-05T16:56:51.964Z,55.90
2022-08-05T16:59:21.063Z,56.10
2022-08-05T17:01:53.709Z,56.30
2022-08-05T17:04:27.658Z,55.90
2022-08-05T17:07:00.870Z,55.80
2022-08-05T17:09:38.957Z,55.90
2022-08-05T17:12:32.324Z,56.40
2022-08-05T17:15:09.247Z,55.80
2022-08-05T17:17:41.982Z,56.00
2022-08-05T17:20:14.914Z,56.00
2022-08-05T17:22:45.038Z,56.10
2022-08-05T17:25:33.959Z,56.10
2022-08-05T17:28:02.487Z,56.10
2022-08-05T17:30:31.257Z,56.30
2022-08-05T17:32:59.765Z,55.90
2022-08-05T17:35:32.561Z,56.00
2022-08-05T17:38:18.505Z,56.10
2022-08-05T17:40:47.723Z,56.50
2022-08-05T17:43:18.202Z,56.40
2022-08-05T17:46:07.028Z,56.00
2022-08-05T17:48:38.868Z,56.00
2022-08-05T17:51:09.682Z,56.50
2022-08-05T17:53:38.269Z,57.20
2022-08-05T17:56:11.770Z,57.60
2022-08-05T17:58:43.389Z,58.60
2022-08-05T18:01:13.131Z,59.10
2022-08-05T18:03:58.711Z,59.50
2022-08-05T18:06:33.838Z,59.90
2022-08-05T18:09:03.474Z,60.40
2022-08-05T18:11:33.817Z,60.70
2022-08-05T18:14:06.558Z,61.10
2022-08-05T18:16:43.733Z,61.40
2022-08-05T18:19:23.266Z,61.90
2022-08-05T18:22:09.323Z,62.10
2022-08-05T18:24:40.196Z,62.60
2022-08-05T18:27:18.316Z,63.00
2022-08-05T18:29:53.520Z,63.90
2022-08-05T18:32:28.471Z,64.00
2022-08-05T18:34:58.832Z,64.30
2022-08-05T18:37:34.853Z,64.90
2022-08-05T18:40:34.546Z,65.10
2022-08-05T18:43:00.997Z,65.50
2022-08-05T18:45:41.035Z,65.70
2022-08-05T18:48:11.921Z,66.20
2022-08-05T18:52:03.389Z,66.30
2022-08-05T18:53:50.461Z,66.80
2022-08-05T18:56:21.644Z,67.20
2022-08-05T18:58:54.912Z,67.40
2022-08-05T19:01:33.364Z,67.80
2022-08-05T19:04:23.934Z,67.90
2022-08-05T19:06:53.737Z,68.00
2022-08-05T19:09:24.326Z,68.30
2022-08-05T19:11:59.194Z,68.40
2022-08-05T19:14:59.570Z,68.40
2022-08-05T19:17:21.058Z,68.80
2022-08-05T19:19:50.606Z,69.00
2022-08-05T19:22:27.548Z,69.30
2022-08-05T19:25:00.769Z,69.60
2022-08-05T19:27:31.469Z,70.00
2022-08-05T19:30:02.795Z,70.10
2022-08-05T19:32:31.737Z,70.30
2022-08-05T19:35:05.824Z,70.70
2022-08-05T19:38:06.567Z,70.80
2022-08-05T19:40:25.624Z,71.20
2022-08-05T19:43:04.857Z,71.50
2022-08-05T19:45:36.980Z,71.80
2022-08-05T19:48:14.406Z,72.20
2022-08-05T19:50:43.626Z,72.30
2022-08-05T19:53:13.380Z,72.50
2022-08-05T19:56:13.828Z,73.00
2022-08-05T19:58:32.882Z,73.50
2022-08-05T20:01:28.171Z,74.50
2022-08-05T20:03:57.441Z,74.30
2022-08-05T20:06:28.841Z,74.30
2022-08-05T20:09:00.899Z,75.00
2022-08-05T20:11:48.175Z,75.20
2022-08-05T20:14:23.515Z,75.60
2022-08-05T20:16:55.959Z,76.00
2022-08-05T20:19:25.259Z,76.10
2022-08-05T20:22:04.903Z,76.30
2022-08-05T20:24:35.309Z,76.30
2022-08-05T20:27:11.284Z,76.50
2022-08-05T20:29:40.326Z,76.70
2022-08-05T20:32:10.355Z,76.80
2022-08-05T20:34:41.258Z,76.90
2022-08-05T20:37:17.838Z,77.40
2022-08-05T20:39:52.900Z,77.30
2022-08-05T20:42:28.399Z,77.60
2022-08-05T20:44:57.057Z,78.00
2022-08-05T20:47:32.221Z,78.20
2022-08-05T20:50:02.300Z,78.70
2022-08-05T20:52:31.598Z,78.80
2022-08-05T20:55:54.714Z,79.10
2022-08-05T20:57:50.797Z,79.50
2022-08-05T21:00:52.089Z,79.70
2022-08-05T21:03:08.889Z,80.20
2022-08-05T21:05:53.752Z,80.60
2022-08-05T21:08:26.548Z,80.80
2022-08-05T21:11:09.957Z,81.30
2022-08-05T21:13:47.564Z,82.00
2022-08-05T21:16:30.456Z,82.70
2022-08-05T21:19:03.454Z,83.40
2022-08-05T21:21:44.493Z,83.80
2022-08-05T21:24:20.039Z,84.40
2022-08-05T21:26:58.055Z,85.40
2022-08-05T21:29:31.828Z,85.40
2022-08-05T21:32:02.186Z,85.90
2022-08-05T21:34:31.696Z,86.50
2022-08-05T21:37:01.876Z,88.00
2022-08-05T21:39:34.644Z,87.90
2022-08-05T21:42:30.515Z,89.40
2022-08-05T21:44:59.249Z,89.80
2022-08-05T21:47:54.967Z,90.10
2022-08-05T21:50:19.227Z,90.40
2022-08-05T21:52:50.877Z,90.80
2022-08-05T21:55:42.981Z,90.90
2022-08-05T21:58:10.223Z,91.10
2022-08-05T22:00:41.894Z,91.30
2022-08-05T22:03:48.230Z,91.70
2022-08-05T22:06:08.401Z,91.90
2022-08-05T22:08:37.039Z,92.30
2022-08-05T22:11:15.584Z,92.60
2022-08-05T22:14:31.204Z,93.00
2022-08-05T22:16:51.660Z,93.40
2022-08-05T22:20:03.523Z,94.00
2022-08-05T22:22:10.749Z,94.30
2022-08-05T22:24:58.267Z,94.70
2022-08-05T22:28:08.744Z,95.10
2022-08-05T22:30:35.855Z,95.50
2022-08-05T22:33:15.389Z,95.90
2022-08-05T22:35:48.845Z,96.10
2022-08-05T22:38:19.017Z,96.40
2022-08-05T22:40:55.047Z,96.80
2022-08-05T22:43:37.294Z,97.00
2022-08-05T22:46:13.305Z,97.40
2022-08-05T22:48:46.086Z,97.40
2022-08-05T22:51:15.858Z,97.90
2022-08-05T22:53:54.971Z,98.00
2022-08-05T22:56:29.801Z,97.90
2022-08-05T22:59:03.219Z,97.90
2022-08-05T23:02:05.535Z,98.00
2022-08-05T23:04:37.969Z,98.10
2022-08-05T23:07:07.182Z,98.30
2022-08-05T23:09:57.826Z,98.50
2022-08-05T23:12:24.746Z,98.90
2022-08-05T23:14:53.580Z,99.10
2022-08-05T23:17:34.437Z,99.40
2022-08-05T23:20:17.520Z,99.60
2022-08-05T23:22:48.266Z,99.70
2022-08-05T23:25:53.523Z,99.80
2022-08-05T23:28:07.722Z,99.80
2022-08-05T23:30:40.113Z,99.90
2022-08-05T23:33:16.289Z,99.90
2022-08-05T23:35:52.716Z,99.90
2022-08-05T23:38:26.123Z,99.90
2022-08-05T23:40:55.502Z,99.90
2022-08-05T23:43:37.305Z,99.90
2022-08-05T23:46:21.483Z,99.90
2022-08-05T23:49:00.236Z,99.90
2022-08-05T23:51:52.433Z,99.90
2022-08-05T23:54:25.859Z,99.90
2022-08-05T23:57:03.236Z,99.90
